Time;durP1;ratioP1;P1;durP2;ratioP2;P2;SDS_P1;SDS_P2;PMS_P1;PMS_P2;Temp;Humidity;BMP_temperature;BMP_pressure;BME280_temperature;BME280_humidity;BME280_pressure;Samples;Min_cycle;Max_cycle;Signal;HPM_P1;HPM_P2
2023/01/27 00:02:20;;;;;;;21.93;8.67;;;0.20;68.80;;;;;;5056846;28;46309;-76
2023/01/27 00:04:45;;;;;;;20.37;9.90;;;0.10;69.00;;;;;;5032080;28;48201;-76
2023/01/27 00:07:11;;;;;;;23.30;9.93;;;0.10;69.30;;;;;;5052886;28;46425;-78
2023/01/27 00:09:36;;;;;;;23.93;9.20;;;0.10;69.50;;;;;;5055970;28;46388;-78
2023/01/27 00:14:46;;;;;;;24.52;9.45;;;0.00;69.30;;;;;;5051288;28;46518;-79
2023/01/27 00:17:11;;;;;;;20.23;8.57;;;0.00;69.40;;;;;;5053166;28;46653;-77
2023/01/27 00:19:37;;;;;;;21.80;9.37;;;0.00;69.30;;;;;;5054235;28;46360;-77
2023/01/27 00:24:47;;;;;;;25.13;9.48;;;0.00;69.30;;;;;;5054063;28;46802;-78
2023/01/27 00:27:12;;;;;;;23.60;8.87;;;0.00;69.30;;;;;;5052405;28;46567;-77
2023/01/27 00:29:39;;;;;;;17.83;8.40;;;0.00;69.30;;;;;;5053564;28;45811;-75
2023/01/27 00:34:49;;;;;;;19.92;8.60;;;0.10;69.40;;;;;;5052841;28;46342;-77
2023/01/27 00:37:15;;;;;;;14.10;6.80;;;0.10;69.40;;;;;;5051603;28;46826;-78
2023/01/27 00:39:41;;;;;;;15.55;7.80;;;0.20;69.30;;;;;;5053786;28;46229;-77
2023/01/27 00:42:07;;;;;;;17.33;7.53;;;0.20;69.30;;;;;;5051187;28;46458;-77
2023/01/27 00:44:33;;;;;;;17.05;7.90;;;0.20;69.30;;;;;;5032480;28;47019;-76
2023/01/27 00:46:58;;;;;;;17.53;8.17;;;0.20;68.70;;;;;;5054032;28;46371;-77
2023/01/27 00:49:24;;;;;;;18.30;7.87;;;0.10;69.40;;;;;;5054138;28;46430;-78
2023/01/27 00:51:50;;;;;;;19.23;8.30;;;0.10;69.40;;;;;;5053219;28;46414;-78
2023/01/27 00:54:15;;;;;;;19.60;8.23;;;0.00;69.30;;;;;;5050259;28;46266;-77
2023/01/27 00:56:41;;;;;;;19.13;8.83;;;0.00;69.40;;;;;;5035168;28;46728;-78
2023/01/27 00:59:07;;;;;;;20.17;8.00;;;-0.10;69.20;;;;;;5052690;28;46372;-77
2023/01/27 01:01:32;;;;;;;22.83;8.17;;;-0.10;69.30;;;;;;5036371;28;46501;-77
2023/01/27 01:03:59;;;;;;;17.87;8.80;;;0.00;69.40;;;;;;5049852;28;46431;-78
2023/01/27 01:06:25;;;;;;;23.27;8.70;;;0.00;69.30;;;;;;5051997;28;46424;-78
2023/01/27 01:08:51;;;;;;;19.33;8.27;;;0.00;69.30;;;;;;5049461;28;46400;-77
2023/01/27 01:11:18;;;;;;;17.38;7.18;;;0.10;69.40;;;;;;5053317;28;46432;-76
2023/01/27 01:13:45;;;;;;;19.23;8.18;;;0.10;69.40;;;;;;5050960;28;48684;-78
2023/01/27 01:16:15;;;;;;;21.38;8.02;;;0.00;69.30;;;;;;5049295;28;46450;-76
2023/01/27 01:18:41;;;;;;;18.48;7.05;;;0.00;69.30;;;;;;5031187;28;45811;-77
2023/01/27 01:21:08;;;;;;;17.58;7.90;;;0.00;69.30;;;;;;5033702;28;46019;-79
2023/01/27 01:23:36;;;;;;;21.25;8.02;;;0.00;69.30;;;;;;5053574;28;46476;-76
2023/01/27 01:26:02;;;;;;;20.45;9.10;;;0.00;69.40;;;;;;5049382;28;46656;-77
2023/01/27 01:28:28;;;;;;;18.13;9.00;;;0.00;69.40;;;;;;5052182;28;46482;-78
2023/01/27 01:30:54;;;;;;;23.57;9.20;;;0.00;69.30;;;;;;5054282;28;46405;-78
2023/01/27 01:33:20;;;;;;;16.38;8.45;;;0.00;69.30;;;;;;5053286;28;48001;-77
2023/01/27 01:35:46;;;;;;;21.13;9.43;;;0.00;69.40;;;;;;5051182;28;46503;-77
2023/01/27 01:38:11;;;;;;;21.30;8.60;;;0.00;69.30;;;;;;5034244;28;46655;-78
2023/01/27 01:40:42;;;;;;;22.03;7.90;;;-0.10;69.20;;;;;;5052319;28;46697;-78
2023/01/27 01:43:15;;;;;;;18.42;8.13;;;-0.10;69.20;;;;;;5052246;28;47344;-76
2023/01/27 01:45:53;;;;;;;17.40;7.85;;;-0.10;69.20;;;;;;5051928;28;46597;-76
2023/01/27 01:48:28;;;;;;;18.98;7.90;;;-0.20;69.30;;;;;;5036280;28;45860;-77
2023/01/27 01:50:58;;;;;;;18.45;8.70;;;-0.10;69.20;;;;;;5051395;28;46413;-77
2023/01/27 01:53:31;;;;;;;18.55;9.05;;;-0.10;69.20;;;;;;5053428;28;46555;-77
2023/01/27 01:56:04;;;;;;;21.05;8.70;;;0.00;69.40;;;;;;5051878;28;46475;-77
2023/01/27 01:58:30;;;;;;;21.10;9.07;;;0.10;69.40;;;;;;5053009;28;46434;-77
2023/01/27 02:00:55;;;;;;;17.37;8.40;;;0.10;69.20;;;;;;5054173;28;46930;-76
2023/01/27 02:03:24;;;;;;;21.00;8.43;;;0.10;69.40;;;;;;5052991;28;47169;-78
2023/01/27 02:05:51;;;;;;;19.10;8.35;;;0.10;69.40;;;;;;5050770;28;46685;-80
2023/01/27 02:08:23;;;;;;;26.63;9.10;;;0.00;69.40;;;;;;5049562;28;46711;-78
2023/01/27 02:10:49;;;;;;;18.23;8.35;;;0.00;69.40;;;;;;5050614;28;45740;-77
2023/01/27 02:13:15;;;;;;;27.70;9.60;;;-0.10;69.20;;;;;;5035119;28;48075;-77
2023/01/27 02:15:40;;;;;;;21.10;9.70;;;-0.10;69.30;;;;;;5054008;28;46620;-78
2023/01/27 02:18:06;;;;;;;21.23;9.17;;;-0.10;69.20;;;;;;5051511;28;46383;-77
2023/01/27 02:20:46;;;;;;;18.23;8.60;;;0.00;69.30;;;;;;5053315;28;45946;-77
2023/01/27 02:23:20;;;;;;;19.70;9.13;;;0.00;69.30;;;;;;5052529;28;45921;-79
2023/01/27 02:25:57;;;;;;;20.00;8.85;;;0.10;69.30;;;;;;5050322;28;46430;-77
2023/01/27 02:28:27;;;;;;;18.52;8.23;;;0.20;68.50;;;;;;5050069;28;46456;-77
2023/01/27 02:30:52;;;;;;;17.08;7.80;;;0.30;68.40;;;;;;5033429;28;46572;-78
2023/01/27 02:33:18;;;;;;;12.23;6.70;;;0.20;68.60;;;;;;5050079;28;53470;-77
2023/01/27 02:36:02;;;;;;;26.10;7.87;;;0.10;70.10;;;;;;5050860;28;47268;-77
2023/01/27 02:38:33;;;;;;;16.90;7.55;;;0.10;69.40;;;;;;5050207;28;46484;-76
2023/01/27 02:41:04;;;;;;;18.50;8.90;;;0.00;69.30;;;;;;5046332;28;47496;-77
2023/01/27 02:43:30;;;;;;;19.48;9.23;;;-0.10;69.20;;;;;;5050025;28;46960;-77
2023/01/27 02:45:55;;;;;;;22.83;9.70;;;-0.10;69.30;;;;;;5049782;28;46434;-76
2023/01/27 02:48:21;;;;;;;24.10;8.90;;;-0.10;69.30;;;;;;5049474;28;45836;-77
2023/01/27 02:50:46;;;;;;;26.27;11.00;;;-0.10;69.20;;;;;;5048279;28;46606;-77
2023/01/27 02:53:12;;;;;;;20.30;8.90;;;-0.10;69.30;;;;;;5032670;28;48572;-77
2023/01/27 02:55:38;;;;;;;23.30;10.40;;;0.00;69.40;;;;;;5033722;28;46451;-77
2023/01/27 02:58:03;;;;;;;27.30;9.23;;;0.00;69.30;;;;;;5035628;28;46372;-78
2023/01/27 03:00:29;;;;;;;34.30;10.47;;;0.00;69.30;;;;;;5032679;28;46451;-78
2023/01/27 03:02:54;;;;;;;17.63;8.63;;;0.10;69.40;;;;;;5051163;28;46486;-77
2023/01/27 03:05:20;;;;;;;25.87;10.50;;;0.10;69.40;;;;;;5050619;28;46383;-78
2023/01/27 03:07:45;;;;;;;24.40;8.70;;;0.10;69.50;;;;;;5031817;28;46343;-78
2023/01/27 03:10:11;;;;;;;21.10;8.70;;;0.10;69.40;;;;;;5047990;28;46354;-77
2023/01/27 03:12:37;;;;;;;20.70;8.60;;;0.00;69.40;;;;;;5047107;28;46422;-77
2023/01/27 03:20:31;;;;;;;26.77;9.35;;;0.00;69.30;;;;;;5060658;28;46293;-77
2023/01/27 03:22:56;;;;;;;22.87;10.00;;;0.00;69.30;;;;;;5030519;28;50496;-76
2023/01/27 03:25:22;;;;;;;25.23;8.80;;;-0.10;69.30;;;;;;5030613;28;46479;-78
2023/01/27 03:27:48;;;;;;;21.80;8.60;;;-0.10;69.20;;;;;;5051006;28;46447;-76
2023/01/27 03:30:13;;;;;;;19.30;8.93;;;0.00;69.30;;;;;;5053496;28;46382;-80
2023/01/27 03:32:45;;;;;;;27.00;10.93;;;0.00;69.30;;;;;;5052233;28;46788;-79
2023/01/27 03:35:13;;;;;;;22.33;9.30;;;0.00;69.40;;;;;;5053561;28;46434;-77
2023/01/27 03:48:36;;;;;;;25.58;10.18;;;0.00;69.30;;;;;;5055546;28;46373;-78
2023/01/27 03:51:04;;;;;;;23.40;9.13;;;0.00;69.40;;;;;;5054590;28;46920;-78
2023/01/27 03:53:30;;;;;;;21.77;9.82;;;0.00;69.40;;;;;;5052140;28;48631;-79
2023/01/27 03:55:55;;;;;;;30.23;10.50;;;-0.10;69.20;;;;;;5051407;28;46472;-77
2023/01/27 03:58:26;;;;;;;26.60;10.37;;;0.00;69.30;;;;;;5033310;28;46097;-77
2023/01/27 04:00:57;;;;;;;28.33;10.73;;;0.00;69.40;;;;;;5050618;28;46436;-80
2023/01/27 04:08:57;;;;;;;35.55;13.98;;;0.00;69.30;;;;;;5052005;28;46856;-77
2023/01/27 04:14:11;;;;;;;25.88;10.00;;;-0.10;69.20;;;;;;5051472;28;46853;-76
2023/01/27 04:16:37;;;;;;;28.00;10.82;;;-0.20;69.20;;;;;;5049867;28;46904;-78
2023/01/27 04:19:06;;;;;;;21.83;8.75;;;-0.20;69.30;;;;;;5033855;28;46346;-79
2023/01/27 04:21:32;;;;;;;40.42;12.77;;;-0.10;69.20;;;;;;5052913;28;46660;-77
2023/01/27 04:23:58;;;;;;;33.73;12.50;;;0.00;69.40;;;;;;5049990;28;47019;-77
2023/01/27 04:26:24;;;;;;;27.43;12.10;;;0.00;69.40;;;;;;5036307;28;46435;-76
2023/01/27 04:28:50;;;;;;;32.33;11.88;;;0.10;69.40;;;;;;5035141;28;46498;-77
2023/01/27 04:31:16;;;;;;;28.60;10.33;;;0.10;69.40;;;;;;5053987;28;46392;-77
2023/01/27 04:33:43;;;;;;;29.00;11.88;;;0.20;69.50;;;;;;5034257;28;48216;-78
2023/01/27 04:36:10;;;;;;;35.97;10.48;;;0.20;69.50;;;;;;5051099;28;46611;-77
2023/01/27 04:38:36;;;;;;;29.35;10.93;;;0.10;69.40;;;;;;5050720;28;46414;-78
2023/01/27 04:41:01;;;;;;;27.50;11.77;;;-0.10;69.30;;;;;;5048371;28;46454;-76
2023/01/27 04:43:27;;;;;;;29.07;10.13;;;-0.10;69.50;;;;;;5053543;28;46364;-75
2023/01/27 04:45:52;;;;;;;28.47;11.20;;;-0.20;70.00;;;;;;5050979;28;46563;-78
2023/01/27 04:48:18;;;;;;;30.53;10.50;;;-0.20;70.50;;;;;;5035260;28;46453;-78
2023/01/27 04:50:43;;;;;;;32.40;11.63;;;-0.30;70.70;;;;;;5052437;28;46549;-76
2023/01/27 04:53:09;;;;;;;31.17;11.70;;;-0.30;70.90;;;;;;5051904;28;46450;-77
2023/01/27 04:55:34;;;;;;;27.17;10.80;;;-0.30;71.10;;;;;;5052303;28;46588;-77
2023/01/27 04:58:00;;;;;;;31.10;11.30;;;-0.40;71.20;;;;;;5033574;28;46448;-76
2023/01/27 05:00:26;;;;;;;28.03;10.10;;;-0.30;71.50;;;;;;5051768;28;46427;-77
2023/01/27 05:02:51;;;;;;;28.13;11.10;;;-0.40;71.50;;;;;;5033840;28;50120;-79
2023/01/27 05:05:17;;;;;;;31.10;9.60;;;-0.40;72.70;;;;;;5050235;28;46400;-78
2023/01/27 05:07:42;;;;;;;29.77;10.83;;;-0.40;71.30;;;;;;5049172;28;46969;-75
2023/01/27 05:10:08;;;;;;;28.57;11.40;;;-0.40;71.50;;;;;;5033549;28;46392;-76
2023/01/27 05:12:34;;;;;;;29.88;10.80;;;-0.50;71.70;;;;;;5052757;28;46430;-77
2023/01/27 05:14:59;;;;;;;31.60;10.80;;;-0.50;71.80;;;;;;5051366;28;46491;-77
2023/01/27 05:17:29;;;;;;;28.47;10.40;;;-0.40;71.90;;;;;;5049933;28;46438;-78
2023/01/27 05:19:55;;;;;;;36.95;12.35;;;-0.40;71.80;;;;;;5049566;28;46995;-76
2023/01/27 05:22:20;;;;;;;24.10;9.83;;;-0.40;71.70;;;;;;5031773;28;48984;-77
2023/01/27 05:24:46;;;;;;;23.83;10.00;;;-0.40;71.60;;;;;;5034278;28;46434;-77
2023/01/27 05:27:11;;;;;;;28.80;10.63;;;-0.40;71.60;;;;;;5052634;28;46390;-78
2023/01/27 05:29:37;;;;;;;26.10;11.37;;;-0.30;71.50;;;;;;5033471;28;46557;-78
2023/01/27 05:32:02;;;;;;;27.70;11.33;;;-0.20;71.10;;;;;;5050601;28;46840;-77
2023/01/27 05:34:28;;;;;;;31.77;12.27;;;-0.20;70.80;;;;;;5030901;28;47043;-78
2023/01/27 05:36:53;;;;;;;38.13;11.50;;;-0.10;70.60;;;;;;5051345;28;46623;-77
2023/01/27 05:39:19;;;;;;;37.87;12.23;;;-0.10;70.50;;;;;;5050841;28;46468;-78
2023/01/27 05:41:44;;;;;;;34.17;11.53;;;-0.10;70.40;;;;;;5033128;28;48057;-78
2023/01/27 05:44:11;;;;;;;36.20;11.90;;;0.00;70.50;;;;;;5030455;28;46384;-76
2023/01/27 05:46:39;;;;;;;40.22;16.30;;;0.00;70.40;;;;;;5052574;28;46543;-75
2023/01/27 05:49:05;;;;;;;32.60;12.82;;;-0.10;70.60;;;;;;5049945;28;46438;-77
2023/01/27 05:51:33;;;;;;;32.88;11.35;;;-0.10;71.70;;;;;;5049463;28;46494;-78
2023/01/27 05:53:58;;;;;;;31.88;12.55;;;0.00;71.60;;;;;;5030787;28;46520;-78
2023/01/27 05:56:25;;;;;;;31.77;13.60;;;0.00;71.30;;;;;;5033852;28;46369;-76
2023/01/27 05:58:53;;;;;;;34.35;12.35;;;0.00;71.40;;;;;;5051816;28;46380;-78
2023/01/27 06:01:21;;;;;;;30.02;11.98;;;0.00;71.10;;;;;;5054192;28;46423;-77
2023/01/27 06:03:47;;;;;;;33.25;11.98;;;0.00;71.00;;;;;;5051036;28;46529;-78
2023/01/27 06:06:15;;;;;;;32.13;12.10;;;0.00;71.10;;;;;;5053414;28;46397;-77
2023/01/27 06:08:40;;;;;;;32.35;12.00;;;0.10;70.90;;;;;;5032356;28;46368;-75
2023/01/27 06:11:06;;;;;;;30.73;13.00;;;0.20;70.30;;;;;;5046706;28;47027;-78
2023/01/27 06:13:37;;;;;;;36.05;12.10;;;0.20;70.30;;;;;;5033730;28;46373;-78
2023/01/27 06:16:05;;;;;;;31.75;12.38;;;0.10;70.70;;;;;;5031580;28;46304;-78
2023/01/27 06:18:31;;;;;;;36.17;13.15;;;0.20;70.60;;;;;;5050511;28;45888;-78
2023/01/27 06:20:58;;;;;;;31.35;10.68;;;0.20;70.70;;;;;;5048347;28;46840;-77
2023/01/27 06:23:24;;;;;;;34.10;12.50;;;0.20;70.70;;;;;;5052769;28;46823;-77
2023/01/27 06:25:50;;;;;;;36.67;14.93;;;0.20;70.60;;;;;;5064662;28;45851;-78
2023/01/27 06:28:16;;;;;;;25.13;11.63;;;0.10;70.70;;;;;;5060353;28;45870;-77
2023/01/27 06:30:43;;;;;;;27.17;11.02;;;0.10;71.80;;;;;;5048886;28;46438;-79
2023/01/27 06:33:09;;;;;;;34.75;12.05;;;0.10;71.70;;;;;;5030780;28;46318;-75
2023/01/27 06:35:36;;;;;;;36.05;13.90;;;0.10;71.70;;;;;;5045809;28;46474;-79
2023/01/27 06:38:04;;;;;;;26.95;11.70;;;0.10;71.30;;;;;;5049547;28;46348;-77
2023/01/27 06:40:31;;;;;;;32.08;12.00;;;0.20;71.30;;;;;;5030737;28;48975;-78
2023/01/27 06:42:57;;;;;;;26.98;12.35;;;0.20;71.10;;;;;;5049418;28;46849;-78
2023/01/27 06:45:22;;;;;;;25.73;11.05;;;0.20;70.90;;;;;;5050583;28;46371;-77
2023/01/27 06:47:59;;;;;;;32.23;11.60;;;0.40;70.30;;;;;;5049965;28;46645;-77
2023/01/27 06:50:27;;;;;;;24.08;11.20;;;0.50;69.80;;;;;;5051541;28;46040;-77
2023/01/27 06:52:58;;;;;;;22.50;10.40;;;0.60;69.90;;;;;;5051010;28;46464;-76
2023/01/27 06:55:24;;;;;;;25.50;12.10;;;0.50;69.80;;;;;;5050644;28;46328;-78
2023/01/27 06:57:50;;;;;;;24.20;10.50;;;0.50;69.80;;;;;;5048670;28;46568;-76
2023/01/27 07:00:16;;;;;;;25.85;10.98;;;0.40;69.70;;;;;;5049197;28;46329;-75
2023/01/27 07:02:43;;;;;;;24.58;10.88;;;0.40;69.70;;;;;;5048239;28;46514;-79
2023/01/27 07:05:09;;;;;;;24.25;10.55;;;0.50;69.90;;;;;;5041956;28;46485;-77
2023/01/27 07:07:34;;;;;;;30.00;12.70;;;0.40;69.70;;;;;;5051439;28;46450;-77
2023/01/27 07:10:00;;;;;;;33.53;14.47;;;0.30;69.60;;;;;;5027085;28;48332;-79
2023/01/27 07:12:26;;;;;;;28.53;12.50;;;0.30;70.20;;;;;;5047170;28;46969;-77
2023/01/27 07:14:51;;;;;;;28.23;12.03;;;0.30;70.90;;;;;;5047170;28;46382;-78
2023/01/27 07:17:17;;;;;;;28.43;11.40;;;0.30;71.00;;;;;;5047345;28;47173;-77
2023/01/27 07:19:42;;;;;;;23.50;10.23;;;0.40;70.10;;;;;;5048039;28;46635;-77
2023/01/27 07:22:08;;;;;;;31.27;11.50;;;0.40;70.20;;;;;;5046978;28;46423;-77
2023/01/27 07:24:33;;;;;;;26.80;12.53;;;0.40;70.50;;;;;;5048852;28;46731;-78
2023/01/27 07:26:59;;;;;;;29.10;11.37;;;0.40;70.50;;;;;;5028908;28;46599;-78
2023/01/27 07:29:25;;;;;;;26.37;12.10;;;0.50;69.80;;;;;;5029531;28;48075;-78
2023/01/27 07:31:50;;;;;;;23.13;10.70;;;0.60;69.90;;;;;;5048088;28;46455;-78
2023/01/27 07:34:16;;;;;;;24.13;11.53;;;0.60;69.90;;;;;;5027537;28;46546;-77
2023/01/27 07:36:41;;;;;;;25.38;11.18;;;0.70;70.00;;;;;;5047735;28;46499;-77
2023/01/27 07:39:07;;;;;;;25.73;11.20;;;0.70;69.90;;;;;;5045912;28;47340;-79
2023/01/27 07:41:32;;;;;;;31.00;14.70;;;0.90;69.60;;;;;;5046968;28;46881;-76
2023/01/27 07:43:58;;;;;;;27.30;12.10;;;0.90;69.30;;;;;;5047121;28;46486;-77
2023/01/27 07:46:24;;;;;;;30.13;11.90;;;1.00;70.20;;;;;;5046652;28;46533;-77
2023/01/27 07:48:49;;;;;;;24.07;10.90;;;0.90;70.10;;;;;;5027503;28;49085;-79
2023/01/27 07:51:15;;;;;;;29.07;11.30;;;0.90;70.10;;;;;;5047130;28;46415;-77
2023/01/27 07:53:41;;;;;;;23.53;10.80;;;0.90;70.10;;;;;;5043992;28;46555;-78
2023/01/27 07:56:10;;;;;;;26.10;11.07;;;1.00;69.40;;;;;;5029267;28;46805;-78
2023/01/27 07:58:37;;;;;;;25.48;10.50;;;1.10;68.90;;;;;;5045223;28;47412;-79
2023/01/27 08:01:07;;;;;;;20.05;9.85;;;1.10;69.30;;;;;;5044835;28;46347;-78
2023/01/27 08:03:33;;;;;;;23.67;11.40;;;1.20;69.00;;;;;;5047499;28;46653;-78
2023/01/27 08:06:02;;;;;;;23.77;10.53;;;1.30;68.80;;;;;;5047661;28;46383;-78
2023/01/27 08:08:27;;;;;;;24.50;10.60;;;1.40;68.70;;;;;;5045313;28;47363;-78
2023/01/27 08:10:53;;;;;;;22.60;10.20;;;1.50;68.60;;;;;;5028037;28;46416;-77
2023/01/27 08:13:19;;;;;;;21.30;10.00;;;1.70;67.90;;;;;;5047820;28;45987;-77
2023/01/27 08:15:44;;;;;;;19.87;10.77;;;2.00;66.90;;;;;;5049607;28;46359;-76
2023/01/27 08:18:10;;;;;;;24.80;11.30;;;2.10;66.10;;;;;;5032555;28;48435;-76
2023/01/27 08:20:36;;;;;;;22.40;10.97;;;2.00;65.90;;;;;;5051480;28;46541;-77
2023/01/27 08:23:01;;;;;;;23.07;11.70;;;1.90;66.70;;;;;;5032376;28;46372;-81
2023/01/27 08:25:27;;;;;;;24.97;10.20;;;1.80;66.80;;;;;;5032963;28;46641;-80
2023/01/27 08:27:54;;;;;;;19.53;9.47;;;1.60;67.50;;;;;;5048134;28;46649;-78
2023/01/27 08:30:21;;;;;;;29.20;11.15;;;1.40;68.50;;;;;;5047672;28;46344;-79
2023/01/27 08:32:46;;;;;;;24.30;9.43;;;1.40;68.50;;;;;;5049154;28;45916;-79
2023/01/27 08:35:12;;;;;;;26.23;11.30;;;1.40;68.40;;;;;;5031163;28;46582;-78
2023/01/27 08:37:38;;;;;;;23.15;10.55;;;1.30;68.70;;;;;;5050999;28;46483;-79
2023/01/27 08:40:04;;;;;;;21.60;11.20;;;1.30;68.60;;;;;;5046893;28;47016;-76
2023/01/27 08:42:29;;;;;;;23.90;12.07;;;1.20;68.60;;;;;;5048738;28;46492;-79
2023/01/27 08:44:55;;;;;;;24.00;11.30;;;1.20;68.80;;;;;;5032275;28;46443;-78
2023/01/27 08:47:20;;;;;;;20.77;10.20;;;1.10;68.80;;;;;;5051197;28;46199;-77
2023/01/27 08:49:46;;;;;;;23.07;10.60;;;1.20;68.60;;;;;;5050790;28;46510;-79
2023/01/27 08:52:12;;;;;;;27.43;11.83;;;1.30;68.40;;;;;;5053463;28;46487;-80
2023/01/27 08:54:38;;;;;;;25.70;11.13;;;1.30;68.20;;;;;;5031516;28;46587;-78
2023/01/27 08:57:04;;;;;;;22.77;11.23;;;1.20;68.00;;;;;;5051371;28;46681;-78
2023/01/27 08:59:29;;;;;;;24.73;11.47;;;1.20;68.20;;;;;;5048685;28;46466;-80
2023/01/27 09:01:55;;;;;;;26.60;11.00;;;1.20;68.10;;;;;;5033631;28;46452;-78
2023/01/27 09:04:22;;;;;;;22.37;11.00;;;1.30;68.00;;;;;;5051429;28;45812;-77
2023/01/27 09:06:49;;;;;;;26.15;11.25;;;1.30;67.90;;;;;;5048629;28;46407;-79
2023/01/27 09:09:15;;;;;;;24.95;10.65;;;1.20;67.60;;;;;;5048039;28;45986;-77
2023/01/27 09:11:42;;;;;;;29.88;11.48;;;1.20;67.70;;;;;;5032212;28;45861;-79
2023/01/27 09:14:09;;;;;;;22.73;10.05;;;1.20;67.70;;;;;;5031397;28;46429;-79
2023/01/27 09:16:34;;;;;;;22.60;10.85;;;1.20;67.70;;;;;;5050136;28;46439;-79
2023/01/27 09:19:00;;;;;;;23.33;10.87;;;1.30;67.60;;;;;;5048335;28;46887;-79
2023/01/27 09:21:26;;;;;;;22.67;10.37;;;1.30;67.50;;;;;;5050449;28;46399;-79
2023/01/27 09:23:51;;;;;;;21.58;10.38;;;1.40;67.30;;;;;;5048957;28;46420;-79
2023/01/27 09:26:17;;;;;;;21.40;9.63;;;1.50;66.80;;;;;;5031591;28;48251;-78
2023/01/27 09:28:43;;;;;;;20.97;10.10;;;1.40;66.90;;;;;;5049695;28;46425;-79
2023/01/27 09:31:08;;;;;;;20.13;9.70;;;1.40;67.00;;;;;;5049490;28;46511;-79
2023/01/27 09:33:35;;;;;;;21.43;10.33;;;1.40;67.00;;;;;;5049334;28;46899;-78
2023/01/27 09:36:13;;;;;;;26.00;10.88;;;1.30;67.20;;;;;;5046495;28;46689;-77
2023/01/27 09:38:45;;;;;;;25.45;10.32;;;1.30;67.40;;;;;;5031903;28;46803;-79
2023/01/27 09:41:17;;;;;;;26.08;11.32;;;1.40;67.00;;;;;;5049210;28;46445;-81
2023/01/27 09:44:01;;;;;;;23.15;11.18;;;1.60;66.50;;;;;;5050706;28;46416;-80
2023/01/27 09:46:35;;;;;;;24.98;10.75;;;1.70;66.30;;;;;;5049408;28;46457;-77
2023/01/27 09:49:16;;;;;;;18.58;10.13;;;2.00;65.30;;;;;;5049111;28;46607;-78
2023/01/27 09:52:13;;;;;;;21.80;10.13;;;2.30;64.00;;;;;;5054420;28;46526;-77
2023/01/27 09:54:47;;;;;;;22.52;10.55;;;2.40;62.50;;;;;;5048542;28;46505;-77
2023/01/27 09:57:47;;;;;;;24.85;9.80;;;2.40;63.20;;;;;;5047037;28;47621;-78
2023/01/27 10:00:22;;;;;;;20.42;10.68;;;2.50;63.10;;;;;;5050731;28;46551;-78
2023/01/27 10:03:16;;;;;;;22.50;10.18;;;2.70;62.30;;;;;;5044076;28;46583;-77
2023/01/27 10:05:52;;;;;;;19.33;10.35;;;2.70;63.60;;;;;;5049165;28;46439;-77
2023/01/27 10:08:41;;;;;;;21.98;10.48;;;2.60;62.90;;;;;;5048944;28;46776;-79
2023/01/27 10:11:13;;;;;;;19.50;9.63;;;2.50;63.20;;;;;;5047282;28;46834;-77
2023/01/27 10:14:09;;;;;;;22.88;10.15;;;2.50;63.60;;;;;;5049001;28;46829;-78
2023/01/27 10:16:53;;;;;;;21.67;10.32;;;2.50;63.00;;;;;;5048891;28;46351;-78
2023/01/27 10:19:39;;;;;;;24.50;11.45;;;2.30;63.50;;;;;;5030458;28;48416;-80
2023/01/27 10:22:25;;;;;;;20.90;9.95;;;2.20;64.10;;;;;;5027825;28;46771;-78
2023/01/27 10:25:06;;;;;;;24.92;14.15;;;2.30;63.90;;;;;;5045377;28;46535;-81
2023/01/27 10:27:36;;;;;;;27.42;11.90;;;2.20;63.50;;;;;;5046881;28;46355;-75
2023/01/27 10:30:11;;;;;;;23.98;12.15;;;2.00;64.20;;;;;;5047912;28;46982;-80
2023/01/27 10:32:56;;;;;;;26.90;13.32;;;2.00;64.50;;;;;;5048952;28;46355;-76
2023/01/27 10:35:39;;;;;;;29.38;12.75;;;2.00;64.30;;;;;;5048409;28;46489;-77
2023/01/27 10:38:14;;;;;;;27.27;12.57;;;2.00;64.40;;;;;;5046614;28;46066;-78
2023/01/27 10:40:46;;;;;;;26.70;11.95;;;2.10;63.70;;;;;;5045283;28;46947;-78
2023/01/27 10:43:21;;;;;;;22.50;11.23;;;2.10;63.50;;;;;;5048877;28;46359;-81
2023/01/27 10:45:55;;;;;;;26.27;11.10;;;2.20;63.30;;;;;;5045357;28;46458;-79
2023/01/27 10:48:29;;;;;;;27.15;11.55;;;2.40;62.70;;;;;;5045890;28;45771;-79
2023/01/27 10:51:07;;;;;;;25.05;11.50;;;2.40;62.60;;;;;;5047683;28;46469;-80
2023/01/27 10:53:57;;;;;;;25.45;11.98;;;2.40;62.60;;;;;;5050325;28;46454;-79
2023/01/27 10:56:50;;;;;;;26.52;13.15;;;2.60;61.50;;;;;;5029404;28;46454;-80
2023/01/27 10:59:24;;;;;;;26.80;14.63;;;2.60;61.00;;;;;;5045358;28;46611;-79
2023/01/27 11:02:23;;;;;;;28.67;11.95;;;2.80;60.00;;;;;;5047107;28;46503;-80
2023/01/27 11:04:55;;;;;;;22.25;10.38;;;2.70;60.40;;;;;;5046713;28;46483;-80
2023/01/27 11:07:22;;;;;;;21.63;10.15;;;2.70;60.40;;;;;;5046637;28;46580;-81
2023/01/27 11:09:58;;;;;;;29.30;12.50;;;2.80;58.90;;;;;;5049815;28;46456;-79
2023/01/27 11:12:42;;;;;;;23.00;11.38;;;2.90;58.80;;;;;;5029027;28;49017;-82
2023/01/27 11:15:16;;;;;;;22.08;10.32;;;3.00;58.90;;;;;;5049045;28;45906;-79
2023/01/27 11:18:09;;;;;;;20.40;10.10;;;2.70;59.20;;;;;;5049359;28;46513;-81
2023/01/27 11:20:40;;;;;;;14.97;7.53;;;2.70;59.20;;;;;;5047979;28;46483;-80
2023/01/27 11:23:08;;;;;;;12.35;7.18;;;2.50;59.40;;;;;;5045238;28;46360;-80
2023/01/27 11:26:11;;;;;;;19.05;7.47;;;2.30;60.10;;;;;;5046903;28;46398;-77
2023/01/27 11:28:44;;;;;;;16.40;7.75;;;2.00;60.60;;;;;;5046769;28;46403;-80
2023/01/27 11:31:33;;;;;;;15.40;7.03;;;1.80;60.90;;;;;;5029339;28;46606;-78
2023/01/27 11:34:26;;;;;;;13.27;6.60;;;1.80;61.10;;;;;;5027572;28;48611;-77
2023/01/27 11:36:52;;;;;;;12.60;6.65;;;1.80;60.80;;;;;;5046013;28;46518;-78
2023/01/27 11:39:18;;;;;;;14.00;6.03;;;1.90;60.80;;;;;;5047397;28;46789;-78
2023/01/27 11:41:49;;;;;;;12.30;6.33;;;1.80;60.60;;;;;;5044221;28;46497;-78
2023/01/27 11:44:19;;;;;;;15.60;7.88;;;1.70;60.70;;;;;;5028129;28;49015;-79
2023/01/27 11:46:46;;;;;;;20.10;8.57;;;1.80;60.70;;;;;;5046866;28;46446;-79
2023/01/27 11:49:22;;;;;;;17.27;8.80;;;2.00;60.40;;;;;;5046790;28;46459;-80
2023/01/27 11:51:48;;;;;;;15.90;7.50;;;2.30;60.60;;;;;;5032080;28;46742;-78
2023/01/27 11:54:24;;;;;;;14.77;7.40;;;2.30;59.20;;;;;;5047611;28;46466;-77
2023/01/27 11:56:50;;;;;;;19.42;8.20;;;2.30;59.40;;;;;;5051039;28;46436;-78
2023/01/27 11:59:23;;;;;;;17.40;8.20;;;2.20;59.40;;;;;;5034786;28;46433;-81
2023/01/27 12:02:00;;;;;;;30.88;14.20;;;2.10;60.60;;;;;;5030850;28;46646;-79
2023/01/27 12:04:48;;;;;;;20.10;8.27;;;2.30;59.50;;;;;;5016149;28;46737;-80
2023/01/27 12:07:37;;;;;;;14.20;7.50;;;2.10;59.60;;;;;;5049706;28;46532;-79
2023/01/27 12:10:41;;;;;;;18.63;7.25;;;2.10;59.30;;;;;;5047964;28;46827;-78
2023/01/27 12:13:23;;;;;;;17.30;8.88;;;2.00;59.40;;;;;;5031893;28;46678;-79
2023/01/27 12:16:03;;;;;;;17.55;8.32;;;1.90;59.60;;;;;;5050656;28;46463;-79
2023/01/27 12:18:34;;;;;;;16.67;7.72;;;1.90;59.60;;;;;;5051652;28;46485;-78
2023/01/27 12:21:02;;;;;;;20.40;10.17;;;1.90;59.40;;;;;;5052096;28;46426;-80
2023/01/27 12:23:45;;;;;;;20.17;8.75;;;1.90;59.10;;;;;;5048271;28;46269;-81
2023/01/27 12:26:11;;;;;;;16.00;7.43;;;1.70;59.20;;;;;;5034427;28;48717;-80
2023/01/27 12:28:48;;;;;;;15.60;7.73;;;1.60;59.50;;;;;;5052007;28;46427;-78
2023/01/27 12:31:17;;;;;;;16.33;8.40;;;1.60;59.60;;;;;;5050305;28;46364;-79
2023/01/27 12:33:54;;;;;;;24.20;8.30;;;1.60;59.60;;;;;;5032990;28;46644;-79
2023/01/27 12:36:21;;;;;;;18.30;8.38;;;1.70;59.20;;;;;;5032573;28;48107;-78
2023/01/27 12:38:51;;;;;;;22.23;9.88;;;1.70;59.20;;;;;;5032521;28;47063;-78
2023/01/27 12:41:26;;;;;;;20.25;9.90;;;1.70;59.00;;;;;;5053000;28;45818;-79
2023/01/27 12:43:54;;;;;;;19.17;9.35;;;2.00;58.70;;;;;;5050706;28;46382;-78
2023/01/27 12:46:25;;;;;;;20.80;9.40;;;2.00;58.60;;;;;;5050477;28;46559;-79
2023/01/27 12:48:54;;;;;;;19.08;9.80;;;1.90;58.50;;;;;;5033931;28;46331;-77
2023/01/27 12:51:40;;;;;;;24.20;10.43;;;1.80;58.80;;;;;;5056259;28;46379;-79
2023/01/27 12:54:23;;;;;;;21.00;10.98;;;1.60;59.30;;;;;;5031659;28;46524;-79
2023/01/27 12:56:53;;;;;;;27.60;10.45;;;1.70;59.40;;;;;;5034641;28;48644;-78
2023/01/27 12:59:21;;;;;;;26.50;10.85;;;1.60;59.50;;;;;;5055063;28;46863;-79
2023/01/27 13:01:56;;;;;;;22.35;10.50;;;1.60;59.50;;;;;;5052588;28;46536;-78
2023/01/27 13:04:26;;;;;;;19.70;10.00;;;1.60;59.30;;;;;;5034286;28;46438;-79
2023/01/27 13:07:01;;;;;;;23.33;10.75;;;1.50;59.70;;;;;;5033984;28;48565;-79
2023/01/27 13:09:35;;;;;;;25.90;10.75;;;1.50;59.70;;;;;;5052237;28;46405;-80
2023/01/27 13:12:24;;;;;;;26.15;12.55;;;1.40;59.90;;;;;;5047932;28;46495;-79
2023/01/27 13:15:03;;;;;;;26.70;12.15;;;1.50;59.80;;;;;;5033433;28;46587;-79
2023/01/27 13:18:07;;;;;;;27.55;12.63;;;1.60;59.60;;;;;;5038410;28;48215;-79
2023/01/27 13:20:45;;;;;;;27.70;13.57;;;1.60;59.40;;;;;;5025401;28;46402;-77
2023/01/27 13:23:22;;;;;;;30.27;13.10;;;1.70;59.30;;;;;;5052270;28;46380;-78
2023/01/27 13:26:03;;;;;;;30.17;13.68;;;1.70;59.30;;;;;;5052576;28;46548;-80